sensor_id;sensor_type;location;lat;lon;timestamp;P1;durP1;ratioP1;P2;durP2;ratioP2
70967;SDS011;58629;48.808;8.820;2023-03-01T00:01:51;13.80;;;6.40;;
70967;SDS011;58629;48.808;8.820;2023-03-01T00:04:16;15.57;;;6.67;;
70967;SDS011;58629;48.808;8.820;2023-03-01T00:06:42;15.20;;;7.00;;
70967;SDS011;58629;48.808;8.820;2023-03-01T00:09:11;19.27;;;8.10;;
70967;SDS011;58629;48.808;8.820;2023-03-01T00:11:36;18.42;;;8.02;;
70967;SDS011;58629;48.808;8.820;2023-03-01T00:14:02;16.73;;;7.53;;
70967;SDS011;58629;48.808;8.820;2023-03-01T00:16:30;13.55;;;6.38;;
70967;SDS011;58629;48.808;8.820;2023-03-01T00:19:00;16.63;;;7.50;;
70967;SDS011;58629;48.808;8.820;2023-03-01T00:21:26;17.60;;;7.85;;
70967;SDS011;58629;48.808;8.820;2023-03-01T00:23:52;19.35;;;8.43;;
70967;SDS011;58629;48.808;8.820;2023-03-01T00:26:19;18.80;;;8.27;;
70967;SDS011;58629;48.808;8.820;2023-03-01T00:28:45;18.95;;;8.55;;
70967;SDS011;58629;48.808;8.820;2023-03-01T00:31:12;16.70;;;7.20;;
70967;SDS011;58629;48.808;8.820;2023-03-01T00:33:42;16.30;;;6.93;;
70967;SDS011;58629;48.808;8.820;2023-03-01T00:36:09;16.52;;;6.72;;
70967;SDS011;58629;48.808;8.820;2023-03-01T00:38:36;16.90;;;7.47;;
70967;SDS011;58629;48.808;8.820;2023-03-01T00:41:03;18.83;;;8.20;;
70967;SDS011;58629;48.808;8.820;2023-03-01T00:43:30;24.15;;;9.57;;
70967;SDS011;58629;48.808;8.820;2023-03-01T00:45:55;20.47;;;8.87;;
70967;SDS011;58629;48.808;8.820;2023-03-01T00:48:21;19.23;;;8.70;;
70967;SDS011;58629;48.808;8.820;2023-03-01T00:50:46;16.43;;;7.23;;
70967;SDS011;58629;48.808;8.820;2023-03-01T00:53:11;21.43;;;8.53;;
70967;SDS011;58629;48.808;8.820;2023-03-01T00:55:36;19.17;;;8.10;;
70967;SDS011;58629;48.808;8.820;2023-03-01T00:58:02;19.43;;;8.07;;
70967;SDS011;58629;48.808;8.820;2023-03-01T01:00:27;18.33;;;7.37;;
70967;SDS011;58629;48.808;8.820;2023-03-01T01:02:53;18.80;;;7.65;;
70967;SDS011;58629;48.808;8.820;2023-03-01T01:05:18;17.87;;;7.80;;
70967;SDS011;58629;48.808;8.820;2023-03-01T01:07:45;19.73;;;7.53;;
70967;SDS011;58629;48.808;8.820;2023-03-01T01:10:11;19.77;;;8.25;;
70967;SDS011;58629;48.808;8.820;2023-03-01T01:12:41;16.48;;;7.05;;
70967;SDS011;58629;48.808;8.820;2023-03-01T01:15:07;18.95;;;7.85;;
70967;SDS011;58629;48.808;8.820;2023-03-01T01:17:33;16.77;;;7.20;;
70967;SDS011;58629;48.808;8.820;2023-03-01T01:19:58;21.20;;;8.70;;
70967;SDS011;58629;48.808;8.820;2023-03-01T01:22:23;20.90;;;8.70;;
70967;SDS011;58629;48.808;8.820;2023-03-01T01:24:49;19.83;;;8.47;;
70967;SDS011;58629;48.808;8.820;2023-03-01T01:27:14;21.10;;;8.93;;
70967;SDS011;58629;48.808;8.820;2023-03-01T01:29:39;20.50;;;9.07;;
70967;SDS011;58629;48.808;8.820;2023-03-01T01:32:06;18.77;;;8.40;;
70967;SDS011;58629;48.808;8.820;2023-03-01T01:34:32;21.57;;;8.30;;
70967;SDS011;58629;48.808;8.820;2023-03-01T01:36:57;17.73;;;7.67;;
70967;SDS011;58629;48.808;8.820;2023-03-01T01:39:22;18.33;;;7.40;;
70967;SDS011;58629;48.808;8.820;2023-03-01T01:41:48;18.75;;;7.70;;
70967;SDS011;58629;48.808;8.820;2023-03-01T01:46:55;21.83;;;8.75;;
70967;SDS011;58629;48.808;8.820;2023-03-01T01:52:11;17.58;;;7.53;;
70967;SDS011;58629;48.808;8.820;2023-03-01T01:54:39;17.60;;;7.70;;
70967;SDS011;58629;48.808;8.820;2023-03-01T01:57:06;22.55;;;8.93;;
70967;SDS011;58629;48.808;8.820;2023-03-01T01:59:35;20.27;;;8.38;;
70967;SDS011;58629;48.808;8.820;2023-03-01T02:02:03;21.23;;;9.20;;
70967;SDS011;58629;48.808;8.820;2023-03-01T02:04:29;18.77;;;8.07;;
70967;SDS011;58629;48.808;8.820;2023-03-01T02:06:58;22.50;;;8.55;;
70967;SDS011;58629;48.808;8.820;2023-03-01T02:09:28;21.50;;;7.95;;
70967;SDS011;58629;48.808;8.820;2023-03-01T02:11:55;22.60;;;9.48;;
70967;SDS011;58629;48.808;8.820;2023-03-01T02:14:21;20.37;;;8.13;;
70967;SDS011;58629;48.808;8.820;2023-03-01T02:16:46;18.70;;;7.87;;
70967;SDS011;58629;48.808;8.820;2023-03-01T02:19:19;17.45;;;7.35;;
70967;SDS011;58629;48.808;8.820;2023-03-01T02:21:58;19.13;;;7.03;;
70967;SDS011;58629;48.808;8.820;2023-03-01T02:24:45;20.45;;;7.65;;
70967;SDS011;58629;48.808;8.820;2023-03-01T02:27:22;18.52;;;7.28;;
70967;SDS011;58629;48.808;8.820;2023-03-01T02:29:51;16.30;;;6.30;;
70967;SDS011;58629;48.808;8.820;2023-03-01T02:32:17;15.33;;;6.37;;
70967;SDS011;58629;48.808;8.820;2023-03-01T02:34:50;16.42;;;6.75;;
70967;SDS011;58629;48.808;8.820;2023-03-01T02:37:17;17.05;;;7.28;;
70967;SDS011;58629;48.808;8.820;2023-03-01T02:39:50;17.10;;;7.30;;
70967;SDS011;58629;48.808;8.820;2023-03-01T02:42:23;16.48;;;7.30;;
70967;SDS011;58629;48.808;8.820;2023-03-01T02:44:53;21.38;;;8.93;;
70967;SDS011;58629;48.808;8.820;2023-03-01T02:47:19;17.57;;;7.60;;
70967;SDS011;58629;48.808;8.820;2023-03-01T02:49:44;19.70;;;7.40;;
70967;SDS011;58629;48.808;8.820;2023-03-01T02:55:08;15.57;;;6.43;;
70967;SDS011;58629;48.808;8.820;2023-03-01T02:57:39;15.27;;;6.35;;
70967;SDS011;58629;48.808;8.820;2023-03-01T03:00:14;19.00;;;7.57;;
70967;SDS011;58629;48.808;8.820;2023-03-01T03:02:46;17.15;;;7.55;;
70967;SDS011;58629;48.808;8.820;2023-03-01T03:05:15;19.10;;;8.18;;
70967;SDS011;58629;48.808;8.820;2023-03-01T03:07:46;19.13;;;7.37;;
70967;SDS011;58629;48.808;8.820;2023-03-01T03:10:14;18.15;;;7.50;;
70967;SDS011;58629;48.808;8.820;2023-03-01T03:12:41;16.17;;;7.18;;
70967;SDS011;58629;48.808;8.820;2023-03-01T03:15:08;15.43;;;7.32;;
70967;SDS011;58629;48.808;8.820;2023-03-01T03:17:37;15.77;;;6.75;;
70967;SDS011;58629;48.808;8.820;2023-03-01T03:20:05;15.33;;;6.80;;
70967;SDS011;58629;48.808;8.820;2023-03-01T03:22:35;15.93;;;6.68;;
70967;SDS011;58629;48.808;8.820;2023-03-01T03:25:01;17.98;;;7.47;;
70967;SDS011;58629;48.808;8.820;2023-03-01T03:27:27;18.10;;;7.83;;
70967;SDS011;58629;48.808;8.820;2023-03-01T03:29:52;15.47;;;6.50;;
70967;SDS011;58629;48.808;8.820;2023-03-01T03:32:18;14.85;;;6.95;;
70967;SDS011;58629;48.808;8.820;2023-03-01T03:34:43;23.85;;;9.73;;
70967;SDS011;58629;48.808;8.820;2023-03-01T03:37:08;20.10;;;8.10;;
70967;SDS011;58629;48.808;8.820;2023-03-01T03:39:53;17.03;;;7.47;;
70967;SDS011;58629;48.808;8.820;2023-03-01T03:42:19;17.83;;;7.28;;
70967;SDS011;58629;48.808;8.820;2023-03-01T03:44:45;18.27;;;7.97;;
70967;SDS011;58629;48.808;8.820;2023-03-01T03:47:11;22.53;;;9.40;;
70967;SDS011;58629;48.808;8.820;2023-03-01T03:49:36;18.43;;;7.70;;
70967;SDS011;58629;48.808;8.820;2023-03-01T03:52:01;17.50;;;7.80;;
70967;SDS011;58629;48.808;8.820;2023-03-01T03:54:26;18.60;;;7.67;;
70967;SDS011;58629;48.808;8.820;2023-03-01T03:56:52;16.23;;;7.50;;
70967;SDS011;58629;48.808;8.820;2023-03-01T03:59:17;15.53;;;6.43;;
70967;SDS011;58629;48.808;8.820;2023-03-01T04:01:42;22.63;;;9.40;;
70967;SDS011;58629;48.808;8.820;2023-03-01T04:04:09;17.40;;;7.68;;
70967;SDS011;58629;48.808;8.820;2023-03-01T04:06:34;17.67;;;7.60;;
70967;SDS011;58629;48.808;8.820;2023-03-01T04:09:00;16.23;;;6.93;;
70967;SDS011;58629;48.808;8.820;2023-03-01T04:11:27;22.67;;;8.87;;
70967;SDS011;58629;48.808;8.820;2023-03-01T04:13:53;20.50;;;9.23;;
70967;SDS011;58629;48.808;8.820;2023-03-01T04:16:20;20.43;;;8.33;;
70967;SDS011;58629;48.808;8.820;2023-03-01T04:18:45;21.88;;;9.50;;
70967;SDS011;58629;48.808;8.820;2023-03-01T04:21:11;18.73;;;8.57;;
70967;SDS011;58629;48.808;8.820;2023-03-01T04:23:36;21.10;;;8.97;;
70967;SDS011;58629;48.808;8.820;2023-03-01T04:26:02;20.95;;;9.18;;
70967;SDS011;58629;48.808;8.820;2023-03-01T04:28:29;24.10;;;10.63;;
70967;SDS011;58629;48.808;8.820;2023-03-01T04:31:02;21.23;;;8.82;;
70967;SDS011;58629;48.808;8.820;2023-03-01T04:33:37;20.73;;;8.88;;
70967;SDS011;58629;48.808;8.820;2023-03-01T04:36:14;17.98;;;8.02;;
70967;SDS011;58629;48.808;8.820;2023-03-01T04:38:41;18.13;;;7.57;;
70967;SDS011;58629;48.808;8.820;2023-03-01T04:41:10;17.50;;;7.50;;
70967;SDS011;58629;48.808;8.820;2023-03-01T04:43:36;18.58;;;7.97;;
70967;SDS011;58629;48.808;8.820;2023-03-01T04:46:06;17.77;;;7.85;;
70967;SDS011;58629;48.808;8.820;2023-03-01T04:48:34;17.10;;;7.75;;
70967;SDS011;58629;48.808;8.820;2023-03-01T04:51:01;16.23;;;7.03;;
70967;SDS011;58629;48.808;8.820;2023-03-01T04:53:27;15.93;;;7.13;;
70967;SDS011;58629;48.808;8.820;2023-03-01T04:55:54;17.17;;;7.97;;
70967;SDS011;58629;48.808;8.820;2023-03-01T04:58:20;15.15;;;6.75;;
70967;SDS011;58629;48.808;8.820;2023-03-01T05:00:46;17.48;;;7.80;;
70967;SDS011;58629;48.808;8.820;2023-03-01T05:03:11;15.43;;;7.27;;
70967;SDS011;58629;48.808;8.820;2023-03-01T05:05:37;15.40;;;7.30;;
70967;SDS011;58629;48.808;8.820;2023-03-01T05:08:05;15.50;;;7.23;;
70967;SDS011;58629;48.808;8.820;2023-03-01T05:10:32;18.10;;;7.65;;
70967;SDS011;58629;48.808;8.820;2023-03-01T05:13:00;14.55;;;6.88;;
70967;SDS011;58629;48.808;8.820;2023-03-01T05:15:26;14.68;;;7.07;;
70967;SDS011;58629;48.808;8.820;2023-03-01T05:17:54;16.10;;;7.18;;
70967;SDS011;58629;48.808;8.820;2023-03-01T05:20:21;15.90;;;7.23;;
70967;SDS011;58629;48.808;8.820;2023-03-01T05:22:50;15.30;;;7.20;;
70967;SDS011;58629;48.808;8.820;2023-03-01T05:25:16;18.25;;;7.65;;
70967;SDS011;58629;48.808;8.820;2023-03-01T05:27:42;14.70;;;6.67;;
70967;SDS011;58629;48.808;8.820;2023-03-01T05:30:08;15.80;;;6.82;;
70967;SDS011;58629;48.808;8.820;2023-03-01T05:32:40;16.13;;;7.38;;
70967;SDS011;58629;48.808;8.820;2023-03-01T05:35:11;18.13;;;8.80;;
70967;SDS011;58629;48.808;8.820;2023-03-01T05:37:41;17.98;;;8.32;;
70967;SDS011;58629;48.808;8.820;2023-03-01T05:40:11;18.90;;;8.38;;
70967;SDS011;58629;48.808;8.820;2023-03-01T05:42:44;17.70;;;7.32;;
70967;SDS011;58629;48.808;8.820;2023-03-01T05:45:11;16.73;;;7.53;;
70967;SDS011;58629;48.808;8.820;2023-03-01T05:47:37;14.43;;;7.20;;
70967;SDS011;58629;48.808;8.820;2023-03-01T05:50:10;15.55;;;7.40;;
70967;SDS011;58629;48.808;8.820;2023-03-01T05:52:36;18.52;;;7.97;;
70967;SDS011;58629;48.808;8.820;2023-03-01T05:55:01;23.93;;;9.80;;
70967;SDS011;58629;48.808;8.820;2023-03-01T05:57:28;21.80;;;9.87;;
70967;SDS011;58629;48.808;8.820;2023-03-01T05:59:53;23.85;;;10.30;;
70967;SDS011;58629;48.808;8.820;2023-03-01T06:02:19;19.50;;;9.43;;
70967;SDS011;58629;48.808;8.820;2023-03-01T06:04:44;19.03;;;8.80;;
70967;SDS011;58629;48.808;8.820;2023-03-01T06:07:10;17.05;;;8.45;;
70967;SDS011;58629;48.808;8.820;2023-03-01T06:09:35;19.57;;;9.50;;
70967;SDS011;58629;48.808;8.820;2023-03-01T06:12:00;20.23;;;10.10;;
70967;SDS011;58629;48.808;8.820;2023-03-01T06:14:25;19.57;;;9.77;;
70967;SDS011;58629;48.808;8.820;2023-03-01T06:16:51;19.77;;;10.37;;
70967;SDS011;58629;48.808;8.820;2023-03-01T06:19:16;20.30;;;10.87;;
70967;SDS011;58629;48.808;8.820;2023-03-01T06:21:41;20.40;;;10.13;;
70967;SDS011;58629;48.808;8.820;2023-03-01T06:24:06;17.30;;;9.00;;
70967;SDS011;58629;48.808;8.820;2023-03-01T06:26:33;17.02;;;9.45;;
70967;SDS011;58629;48.808;8.820;2023-03-01T06:28:58;19.03;;;8.93;;
70967;SDS011;58629;48.808;8.820;2023-03-01T06:31:23;17.90;;;9.27;;
70967;SDS011;58629;48.808;8.820;2023-03-01T06:33:49;18.57;;;9.33;;
70967;SDS011;58629;48.808;8.820;2023-03-01T06:36:14;22.00;;;11.87;;
70967;SDS011;58629;48.808;8.820;2023-03-01T06:38:39;20.73;;;10.20;;
70967;SDS011;58629;48.808;8.820;2023-03-01T06:41:05;22.10;;;11.45;;
70967;SDS011;58629;48.808;8.820;2023-03-01T06:43:31;21.50;;;10.57;;
70967;SDS011;58629;48.808;8.820;2023-03-01T06:45:57;21.27;;;10.60;;
70967;SDS011;58629;48.808;8.820;2023-03-01T06:48:22;23.97;;;11.73;;
70967;SDS011;58629;48.808;8.820;2023-03-01T06:50:48;21.73;;;11.07;;
70967;SDS011;58629;48.808;8.820;2023-03-01T06:53:13;24.53;;;11.57;;
70967;SDS011;58629;48.808;8.820;2023-03-01T06:55:38;25.97;;;12.27;;
70967;SDS011;58629;48.808;8.820;2023-03-01T06:58:03;25.77;;;11.73;;
70967;SDS011;58629;48.808;8.820;2023-03-01T07:00:29;22.00;;;10.57;;
70967;SDS011;58629;48.808;8.820;2023-03-01T07:02:57;23.92;;;10.93;;
70967;SDS011;58629;48.808;8.820;2023-03-01T07:05:23;30.15;;;12.57;;
70967;SDS011;58629;48.808;8.820;2023-03-01T07:07:49;26.67;;;12.23;;
70967;SDS011;58629;48.808;8.820;2023-03-01T07:10:14;26.33;;;11.50;;
70967;SDS011;58629;48.808;8.820;2023-03-01T07:12:39;26.77;;;11.57;;
70967;SDS011;58629;48.808;8.820;2023-03-01T07:15:06;25.55;;;11.52;;
70967;SDS011;58629;48.808;8.820;2023-03-01T07:17:34;27.63;;;11.88;;
70967;SDS011;58629;48.808;8.820;2023-03-01T07:19:59;26.70;;;11.90;;
70967;SDS011;58629;48.808;8.820;2023-03-01T07:22:24;27.13;;;11.40;;
70967;SDS011;58629;48.808;8.820;2023-03-01T07:24:50;25.80;;;11.70;;
70967;SDS011;58629;48.808;8.820;2023-03-01T07:27:15;22.87;;;10.23;;
70967;SDS011;58629;48.808;8.820;2023-03-01T07:29:40;23.23;;;9.97;;
70967;SDS011;58629;48.808;8.820;2023-03-01T07:32:06;18.33;;;8.90;;
70967;SDS011;58629;48.808;8.820;2023-03-01T07:34:31;22.17;;;9.33;;
70967;SDS011;58629;48.808;8.820;2023-03-01T07:36:57;21.10;;;9.18;;
70967;SDS011;58629;48.808;8.820;2023-03-01T07:39:22;22.47;;;9.17;;
70967;SDS011;58629;48.808;8.820;2023-03-01T07:41:50;20.77;;;9.53;;
70967;SDS011;58629;48.808;8.820;2023-03-01T07:44:16;22.20;;;10.00;;
70967;SDS011;58629;48.808;8.820;2023-03-01T07:46:42;22.90;;;10.43;;
70967;SDS011;58629;48.808;8.820;2023-03-01T07:49:08;23.15;;;10.35;;
70967;SDS011;58629;48.808;8.820;2023-03-01T07:51:33;21.87;;;10.30;;
70967;SDS011;58629;48.808;8.820;2023-03-01T07:53:59;23.70;;;10.47;;
70967;SDS011;58629;48.808;8.820;2023-03-01T07:56:24;23.37;;;10.17;;
70967;SDS011;58629;48.808;8.820;2023-03-01T07:58:49;33.93;;;17.13;;
70967;SDS011;58629;48.808;8.820;2023-03-01T08:01:15;27.40;;;13.00;;
70967;SDS011;58629;48.808;8.820;2023-03-01T08:03:42;24.00;;;11.35;;
70967;SDS011;58629;48.808;8.820;2023-03-01T08:06:08;29.37;;;12.37;;
70967;SDS011;58629;48.808;8.820;2023-03-01T08:08:35;27.20;;;11.30;;
70967;SDS011;58629;48.808;8.820;2023-03-01T08:11:02;25.35;;;11.43;;
70967;SDS011;58629;48.808;8.820;2023-03-01T08:13:28;25.85;;;11.32;;
70967;SDS011;58629;48.808;8.820;2023-03-01T08:15:54;26.83;;;11.13;;
70967;SDS011;58629;48.808;8.820;2023-03-01T08:18:20;29.20;;;12.30;;
70967;SDS011;58629;48.808;8.820;2023-03-01T08:20:46;28.60;;;12.18;;
70967;SDS011;58629;48.808;8.820;2023-03-01T08:23:11;26.35;;;12.23;;
70967;SDS011;58629;48.808;8.820;2023-03-01T08:25:37;26.77;;;11.77;;
70967;SDS011;58629;48.808;8.820;2023-03-01T08:28:02;25.50;;;11.77;;
70967;SDS011;58629;48.808;8.820;2023-03-01T08:30:28;24.95;;;12.27;;
70967;SDS011;58629;48.808;8.820;2023-03-01T08:32:54;24.60;;;11.20;;
70967;SDS011;58629;48.808;8.820;2023-03-01T08:35:19;25.77;;;11.32;;
70967;SDS011;58629;48.808;8.820;2023-03-01T08:37:46;29.07;;;13.00;;
70967;SDS011;58629;48.808;8.820;2023-03-01T08:40:11;26.92;;;12.77;;
70967;SDS011;58629;48.808;8.820;2023-03-01T08:42:38;30.08;;;14.27;;
70967;SDS011;58629;48.808;8.820;2023-03-01T08:45:04;26.87;;;12.03;;
70967;SDS011;58629;48.808;8.820;2023-03-01T08:47:30;26.77;;;12.23;;
70967;SDS011;58629;48.808;8.820;2023-03-01T08:49:55;27.53;;;12.47;;
70967;SDS011;58629;48.808;8.820;2023-03-01T08:52:20;25.77;;;11.50;;
70967;SDS011;58629;48.808;8.820;2023-03-01T08:54:49;28.00;;;11.80;;
70967;SDS011;58629;48.808;8.820;2023-03-01T08:57:15;25.88;;;11.60;;
70967;SDS011;58629;48.808;8.820;2023-03-01T08:59:40;27.77;;;12.80;;
70967;SDS011;58629;48.808;8.820;2023-03-01T09:02:13;31.27;;;12.57;;
70967;SDS011;58629;48.808;8.820;2023-03-01T09:04:40;26.27;;;12.85;;
70967;SDS011;58629;48.808;8.820;2023-03-01T09:07:05;28.48;;;12.85;;
70967;SDS011;58629;48.808;8.820;2023-03-01T09:09:31;28.47;;;12.93;;
70967;SDS011;58629;48.808;8.820;2023-03-01T09:11:56;25.83;;;12.23;;
70967;SDS011;58629;48.808;8.820;2023-03-01T09:14:22;26.17;;;11.60;;
70967;SDS011;58629;48.808;8.820;2023-03-01T09:16:47;28.37;;;12.50;;
70967;SDS011;58629;48.808;8.820;2023-03-01T09:19:13;24.07;;;11.37;;
70967;SDS011;58629;48.808;8.820;2023-03-01T09:21:38;28.05;;;12.90;;
70967;SDS011;58629;48.808;8.820;2023-03-01T09:24:04;29.27;;;12.93;;
70967;SDS011;58629;48.808;8.820;2023-03-01T09:26:29;27.90;;;12.52;;
70967;SDS011;58629;48.808;8.820;2023-03-01T09:28:55;27.33;;;12.00;;
70967;SDS011;58629;48.808;8.820;2023-03-01T09:31:21;28.30;;;12.30;;
70967;SDS011;58629;48.808;8.820;2023-03-01T09:33:49;27.52;;;12.82;;
70967;SDS011;58629;48.808;8.820;2023-03-01T09:36:16;27.73;;;12.85;;
70967;SDS011;58629;48.808;8.820;2023-03-01T09:38:43;26.70;;;11.82;;
70967;SDS011;58629;48.808;8.820;2023-03-01T09:41:35;22.92;;;11.75;;
70967;SDS011;58629;48.808;8.820;2023-03-01T09:45:11;24.92;;;12.00;;
70967;SDS011;58629;48.808;8.820;2023-03-01T09:47:09;24.88;;;11.57;;
70967;SDS011;58629;48.808;8.820;2023-03-01T09:49:55;26.67;;;12.00;;
70967;SDS011;58629;48.808;8.820;2023-03-01T09:54:58;24.57;;;11.47;;
70967;SDS011;58629;48.808;8.820;2023-03-01T10:05:31;23.75;;;11.50;;
70967;SDS011;58629;48.808;8.820;2023-03-01T10:10:36;25.25;;;11.68;;
70967;SDS011;58629;48.808;8.820;2023-03-01T10:13:13;26.10;;;11.37;;
70967;SDS011;58629;48.808;8.820;2023-03-01T10:15:45;24.83;;;11.85;;
70967;SDS011;58629;48.808;8.820;2023-03-01T10:18:20;26.67;;;12.02;;
70967;SDS011;58629;48.808;8.820;2023-03-01T10:20:52;25.17;;;11.57;;
70967;SDS011;58629;48.808;8.820;2023-03-01T10:23:22;25.88;;;11.85;;
70967;SDS011;58629;48.808;8.820;2023-03-01T10:29:11;24.55;;;11.70;;
70967;SDS011;58629;48.808;8.820;2023-03-01T10:34:16;25.25;;;11.73;;
70967;SDS011;58629;48.808;8.820;2023-03-01T10:36:44;25.25;;;12.18;;
70967;SDS011;58629;48.808;8.820;2023-03-01T10:39:14;25.87;;;12.07;;
70967;SDS011;58629;48.808;8.820;2023-03-01T10:41:52;23.67;;;11.85;;
70967;SDS011;58629;48.808;8.820;2023-03-01T10:47:17;23.67;;;11.95;;
70967;SDS011;58629;48.808;8.820;2023-03-01T10:49:52;26.50;;;12.50;;
70967;SDS011;58629;48.808;8.820;2023-03-01T10:52:21;27.47;;;12.47;;
70967;SDS011;58629;48.808;8.820;2023-03-01T10:54:53;22.90;;;11.00;;
70967;SDS011;58629;48.808;8.820;2023-03-01T10:57:48;23.50;;;11.30;;
70967;SDS011;58629;48.808;8.820;2023-03-01T11:03:10;25.05;;;12.55;;
70967;SDS011;58629;48.808;8.820;2023-03-01T11:05:37;23.65;;;11.65;;
70967;SDS011;58629;48.808;8.820;2023-03-01T11:08:25;25.88;;;12.27;;
70967;SDS011;58629;48.808;8.820;2023-03-01T11:11:03;24.57;;;11.83;;
70967;SDS011;58629;48.808;8.820;2023-03-01T11:13:30;24.42;;;11.77;;
70967;SDS011;58629;48.808;8.820;2023-03-01T11:16:00;26.55;;;12.23;;
70967;SDS011;58629;48.808;8.820;2023-03-01T11:18:27;24.43;;;12.00;;
70967;SDS011;58629;48.808;8.820;2023-03-01T11:20:55;23.80;;;11.68;;
70967;SDS011;58629;48.808;8.820;2023-03-01T11:23:23;23.15;;;12.60;;
70967;SDS011;58629;48.808;8.820;2023-03-01T11:25:51;25.45;;;12.57;;
70967;SDS011;58629;48.808;8.820;2023-03-01T11:28:21;22.93;;;11.77;;
70967;SDS011;58629;48.808;8.820;2023-03-01T11:36:33;23.27;;;11.00;;
70967;SDS011;58629;48.808;8.820;2023-03-01T11:39:50;24.70;;;12.02;;
70967;SDS011;58629;48.808;8.820;2023-03-01T11:42:12;25.93;;;12.83;;
70967;SDS011;58629;48.808;8.820;2023-03-01T11:44:42;25.42;;;12.93;;
70967;SDS011;58629;48.808;8.820;2023-03-01T11:47:17;25.85;;;12.75;;
70967;SDS011;58629;48.808;8.820;2023-03-01T11:49:58;24.73;;;12.32;;
70967;SDS011;58629;48.808;8.820;2023-03-01T11:58:43;27.95;;;14.20;;
70967;SDS011;58629;48.808;8.820;2023-03-01T12:01:30;25.70;;;12.77;;
70967;SDS011;58629;48.808;8.820;2023-03-01T12:07:44;23.88;;;11.63;;
70967;SDS011;58629;48.808;8.820;2023-03-01T12:21:31;20.35;;;10.70;;
70967;SDS011;58629;48.808;8.820;2023-03-01T12:24:06;21.00;;;10.20;;
70967;SDS011;58629;48.808;8.820;2023-03-01T12:40:48;21.73;;;11.27;;
70967;SDS011;58629;48.808;8.820;2023-03-01T12:49:12;21.90;;;11.07;;
70967;SDS011;58629;48.808;8.820;2023-03-01T12:51:50;24.57;;;11.17;;
70967;SDS011;58629;48.808;8.820;2023-03-01T12:54:34;20.77;;;10.55;;
70967;SDS011;58629;48.808;8.820;2023-03-01T13:06:19;19.97;;;10.10;;
70967;SDS011;58629;48.808;8.820;2023-03-01T13:11:25;19.13;;;9.68;;
70967;SDS011;58629;48.808;8.820;2023-03-01T13:14:35;19.77;;;10.30;;
70967;SDS011;58629;48.808;8.820;2023-03-01T13:16:45;21.83;;;10.80;;
70967;SDS011;58629;48.808;8.820;2023-03-01T13:19:17;21.73;;;11.60;;
70967;SDS011;58629;48.808;8.820;2023-03-01T13:21:48;23.17;;;11.45;;
70967;SDS011;58629;48.808;8.820;2023-03-01T13:27:09;23.30;;;11.57;;
70967;SDS011;58629;48.808;8.820;2023-03-01T13:29:49;21.63;;;11.57;;
70967;SDS011;58629;48.808;8.820;2023-03-01T13:34:44;21.03;;;10.73;;
70967;SDS011;58629;48.808;8.820;2023-03-01T13:37:21;21.90;;;11.75;;
70967;SDS011;58629;48.808;8.820;2023-03-01T13:39:54;23.42;;;11.73;;
70967;SDS011;58629;48.808;8.820;2023-03-01T13:42:39;23.30;;;11.83;;
70967;SDS011;58629;48.808;8.820;2023-03-01T13:45:17;21.58;;;11.75;;
70967;SDS011;58629;48.808;8.820;2023-03-01T13:47:46;22.40;;;11.63;;
70967;SDS011;58629;48.808;8.820;2023-03-01T13:50:24;22.48;;;11.68;;
70967;SDS011;58629;48.808;8.820;2023-03-01T13:52:53;24.02;;;12.20;;
70967;SDS011;58629;48.808;8.820;2023-03-01T13:55:42;23.30;;;12.07;;
70967;SDS011;58629;48.808;8.820;2023-03-01T13:58:27;24.40;;;12.27;;
70967;SDS011;58629;48.808;8.820;2023-03-01T14:00:55;24.17;;;12.13;;
70967;SDS011;58629;48.808;8.820;2023-03-01T14:03:21;22.88;;;12.20;;
70967;SDS011;58629;48.808;8.820;2023-03-01T14:06:04;22.27;;;12.17;;
70967;SDS011;58629;48.808;8.820;2023-03-01T14:08:37;22.25;;;11.70;;
70967;SDS011;58629;48.808;8.820;2023-03-01T14:11:13;23.47;;;12.03;;
70967;SDS011;58629;48.808;8.820;2023-03-01T14:14:04;20.83;;;11.60;;
70967;SDS011;58629;48.808;8.820;2023-03-01T14:21:44;23.02;;;12.27;;
70967;SDS011;58629;48.808;8.820;2023-03-01T14:24:18;23.55;;;12.30;;
70967;SDS011;58629;48.808;8.820;2023-03-01T14:26:45;22.48;;;11.80;;
70967;SDS011;58629;48.808;8.820;2023-03-01T14:29:24;25.30;;;12.40;;
70967;SDS011;58629;48.808;8.820;2023-03-01T14:31:50;22.85;;;12.00;;
70967;SDS011;58629;48.808;8.820;2023-03-01T14:34:18;21.77;;;11.87;;
70967;SDS011;58629;48.808;8.820;2023-03-01T14:36:45;22.92;;;11.43;;
70967;SDS011;58629;48.808;8.820;2023-03-01T14:39:17;23.77;;;11.50;;
70967;SDS011;58629;48.808;8.820;2023-03-01T14:41:44;21.25;;;10.95;;
70967;SDS011;58629;48.808;8.820;2023-03-01T14:44:15;23.07;;;11.67;;
70967;SDS011;58629;48.808;8.820;2023-03-01T14:46:51;22.23;;;11.20;;
70967;SDS011;58629;48.808;8.820;2023-03-01T14:49:22;23.42;;;12.18;;
70967;SDS011;58629;48.808;8.820;2023-03-01T14:54:31;21.60;;;11.20;;
70967;SDS011;58629;48.808;8.820;2023-03-01T14:57:05;20.77;;;11.10;;
70967;SDS011;58629;48.808;8.820;2023-03-01T14:59:32;22.63;;;12.20;;
70967;SDS011;58629;48.808;8.820;2023-03-01T15:01:59;22.57;;;11.80;;
70967;SDS011;58629;48.808;8.820;2023-03-01T15:04:25;23.92;;;12.27;;
70967;SDS011;58629;48.808;8.820;2023-03-01T15:06:52;25.73;;;12.95;;
70967;SDS011;58629;48.808;8.820;2023-03-01T15:09:19;22.27;;;11.57;;
70967;SDS011;58629;48.808;8.820;2023-03-01T15:11:45;22.35;;;11.73;;
70967;SDS011;58629;48.808;8.820;2023-03-01T15:17:20;20.48;;;11.00;;
70967;SDS011;58629;48.808;8.820;2023-03-01T15:19:49;23.27;;;12.03;;
70967;SDS011;58629;48.808;8.820;2023-03-01T15:22:15;22.67;;;11.52;;
70967;SDS011;58629;48.808;8.820;2023-03-01T15:24:41;22.05;;;12.10;;
70967;SDS011;58629;48.808;8.820;2023-03-01T15:27:14;22.87;;;12.00;;
70967;SDS011;58629;48.808;8.820;2023-03-01T15:29:46;19.90;;;11.05;;
70967;SDS011;58629;48.808;8.820;2023-03-01T15:32:27;21.08;;;11.50;;
70967;SDS011;58629;48.808;8.820;2023-03-01T15:34:55;22.70;;;11.55;;
70967;SDS011;58629;48.808;8.820;2023-03-01T15:40:31;21.33;;;11.30;;
70967;SDS011;58629;48.808;8.820;2023-03-01T15:43:05;20.15;;;10.55;;
70967;SDS011;58629;48.808;8.820;2023-03-01T15:45:32;22.80;;;11.40;;
70967;SDS011;58629;48.808;8.820;2023-03-01T15:48:04;21.15;;;10.55;;
70967;SDS011;58629;48.808;8.820;2023-03-01T15:50:40;24.02;;;11.27;;
70967;SDS011;58629;48.808;8.820;2023-03-01T15:53:06;23.83;;;13.23;;
70967;SDS011;58629;48.808;8.820;2023-03-01T15:55:36;23.65;;;11.82;;
70967;SDS011;58629;48.808;8.820;2023-03-01T15:58:05;19.83;;;10.13;;
70967;SDS011;58629;48.808;8.820;2023-03-01T16:00:37;19.42;;;9.90;;
70967;SDS011;58629;48.808;8.820;2023-03-01T16:03:03;20.65;;;10.82;;
70967;SDS011;58629;48.808;8.820;2023-03-01T16:05:31;21.92;;;11.40;;
70967;SDS011;58629;48.808;8.820;2023-03-01T16:07:57;23.65;;;11.77;;
70967;SDS011;58629;48.808;8.820;2023-03-01T16:10:23;24.23;;;13.53;;
70967;SDS011;58629;48.808;8.820;2023-03-01T16:12:49;21.40;;;11.15;;
70967;SDS011;58629;48.808;8.820;2023-03-01T16:15:21;21.77;;;11.50;;
70967;SDS011;58629;48.808;8.820;2023-03-01T16:17:53;22.42;;;11.32;;
70967;SDS011;58629;48.808;8.820;2023-03-01T16:20:19;23.63;;;12.75;;
70967;SDS011;58629;48.808;8.820;2023-03-01T16:22:45;22.97;;;11.70;;
70967;SDS011;58629;48.808;8.820;2023-03-01T16:25:11;23.30;;;11.50;;
70967;SDS011;58629;48.808;8.820;2023-03-01T16:27:38;21.83;;;10.80;;
70967;SDS011;58629;48.808;8.820;2023-03-01T16:30:04;20.73;;;11.20;;